Time;durP1;ratioP1;P1;durP2;ratioP2;P2;SDS_P1;SDS_P2;PMS_P1;PMS_P2;Temp;Humidity;BMP_temperature;BMP_pressure;BME280_temperature;BME280_humidity;BME280_pressure;Samples;Min_cycle;Max_cycle;Signal;HPM_P1;HPM_P2
2023/11/28 00:01:37;;;;;;;3.00;1.25;;;2.30;99.90;;;;;;5013923;28;20541;-76
2023/11/28 00:04:03;;;;;;;2.78;1.40;;;2.30;99.90;;;;;;5013802;28;20050;-76
2023/11/28 00:06:28;;;;;;;3.08;1.45;;;2.20;99.90;;;;;;5013673;28;20042;-76
2023/11/28 00:08:54;;;;;;;2.72;1.20;;;2.20;99.90;;;;;;4997573;28;20054;-76
2023/11/28 00:11:21;;;;;;;2.58;1.20;;;2.30;99.90;;;;;;5014128;28;20042;-76
2023/11/28 00:13:47;;;;;;;1.52;1.20;;;2.30;99.90;;;;;;5013763;28;20144;-76
2023/11/28 00:16:13;;;;;;;1.88;1.17;;;2.30;99.90;;;;;;4996993;28;20597;-76
2023/11/28 00:18:39;;;;;;;4.63;1.63;;;2.30;99.90;;;;;;5013558;28;20073;-76
2023/11/28 00:21:05;;;;;;;3.33;1.20;;;2.20;99.90;;;;;;5013758;28;20417;-76
2023/11/28 00:23:30;;;;;;;1.77;1.27;;;2.10;99.90;;;;;;5012599;28;20129;-77
2023/11/28 00:25:56;;;;;;;4.80;1.55;;;2.10;99.90;;;;;;4989357;28;20484;-76
2023/11/28 00:28:22;;;;;;;4.90;1.30;;;2.10;99.90;;;;;;5013349;28;20189;-76
2023/11/28 00:30:48;;;;;;;2.33;1.40;;;2.10;99.90;;;;;;5013302;28;20049;-77
2023/11/28 00:33:13;;;;;;;3.10;1.05;;;2.10;99.90;;;;;;5013056;28;20122;-76
2023/11/28 00:35:40;;;;;;;2.10;0.90;;;2.10;99.90;;;;;;4996565;28;20107;-76
2023/11/28 00:38:06;;;;;;;1.05;0.88;;;2.10;99.90;;;;;;5013344;28;20548;-76
2023/11/28 00:40:32;;;;;;;3.25;0.93;;;2.10;99.90;;;;;;4996888;28;20129;-76
2023/11/28 00:42:59;;;;;;;1.25;0.80;;;2.00;99.90;;;;;;5013215;28;20042;-76
2023/11/28 00:45:25;;;;;;;1.55;0.93;;;2.10;99.90;;;;;;5012815;28;20045;-76
2023/11/28 00:47:52;;;;;;;1.33;0.95;;;2.00;99.90;;;;;;4996750;28;20046;-76
2023/11/28 00:50:18;;;;;;;1.80;0.80;;;2.20;99.90;;;;;;5013113;28;20038;-77
2023/11/28 00:52:47;;;;;;;2.78;1.00;;;2.30;99.90;;;;;;5013029;28;20117;-76
2023/11/28 00:55:14;;;;;;;2.58;0.85;;;2.10;99.90;;;;;;5013033;28;20046;-76
2023/11/28 00:57:40;;;;;;;1.60;1.02;;;2.20;99.90;;;;;;4996495;28;20168;-76
2023/11/28 01:00:07;;;;;;;3.53;2.03;;;2.10;99.90;;;;;;4996703;28;20038;-76
2023/11/28 01:02:33;;;;;;;2.25;1.20;;;2.10;99.90;;;;;;5011355;28;20496;-76
2023/11/28 01:04:58;;;;;;;3.85;1.17;;;2.10;99.90;;;;;;5028015;28;20052;-76
2023/11/28 01:07:24;;;;;;;5.00;1.58;;;2.10;99.90;;;;;;5012580;28;20073;-76
2023/11/28 01:09:50;;;;;;;2.08;1.60;;;2.00;99.90;;;;;;5010856;28;20038;-76
2023/11/28 01:12:16;;;;;;;4.03;2.35;;;2.00;99.90;;;;;;5026479;28;20057;-76
2023/11/28 01:14:42;;;;;;;4.35;2.55;;;2.00;99.90;;;;;;5027367;28;20038;-76
2023/11/28 01:17:08;;;;;;;2.30;1.63;;;1.90;99.90;;;;;;5026645;28;20038;-76
2023/11/28 01:19:34;;;;;;;4.60;1.92;;;2.10;99.90;;;;;;5026677;28;20042;-76
2023/11/28 01:22:03;;;;;;;3.47;1.55;;;2.10;99.90;;;;;;5027278;28;20049;-76
2023/11/28 01:24:28;;;;;;;5.97;2.28;;;2.00;99.90;;;;;;5022191;28;20136;-77
2023/11/28 01:26:54;;;;;;;3.80;1.85;;;2.00;99.90;;;;;;5013423;28;20108;-76
2023/11/28 01:29:20;;;;;;;5.00;1.88;;;2.00;99.90;;;;;;4997411;28;20050;-76
2023/11/28 01:31:45;;;;;;;4.70;2.03;;;2.00;99.90;;;;;;4996604;28;20042;-76
2023/11/28 01:34:11;;;;;;;4.65;2.38;;;2.00;99.90;;;;;;5018874;23;20047;-75
2023/11/28 01:36:40;;;;;;;3.40;1.88;;;1.90;99.90;;;;;;4977500;28;20042;-75
2023/11/28 01:39:07;;;;;;;5.13;2.40;;;1.90;99.90;;;;;;4977977;28;20039;-75
2023/11/28 01:41:34;;;;;;;4.30;1.65;;;1.90;99.90;;;;;;4978036;28;20058;-75
2023/11/28 01:44:06;;;;;;;4.30;1.88;;;1.90;99.90;;;;;;4975175;28;20050;-75
2023/11/28 01:46:36;;;;;;;4.25;2.10;;;2.00;99.90;;;;;;4975038;28;20047;-75
2023/11/28 01:49:06;;;;;;;6.80;1.70;;;1.90;99.90;;;;;;4976533;28;20035;-75
2023/11/28 01:51:33;;;;;;;6.70;1.77;;;2.00;99.90;;;;;;4978207;28;20046;-75
2023/11/28 01:54:04;;;;;;;2.33;1.45;;;2.00;99.90;;;;;;4979127;28;20038;-75
2023/11/28 01:56:30;;;;;;;2.75;1.50;;;2.00;99.90;;;;;;4978622;28;20043;-75
2023/11/28 01:58:57;;;;;;;2.80;1.83;;;2.00;99.90;;;;;;4978846;28;20499;-75
2023/11/28 02:01:24;;;;;;;4.07;1.67;;;2.00;99.90;;;;;;4976953;28;20125;-75
2023/11/28 02:03:51;;;;;;;2.88;1.70;;;2.00;99.90;;;;;;4978666;28;20050;-75
2023/11/28 02:06:20;;;;;;;4.80;2.17;;;2.10;99.90;;;;;;4979356;28;20039;-75
2023/11/28 02:08:45;;;;;;;3.85;1.88;;;2.10;99.90;;;;;;4978657;28;20518;-75
2023/11/28 02:11:11;;;;;;;4.15;2.58;;;2.10;99.90;;;;;;4960160;29;20054;-75
2023/11/28 02:13:37;;;;;;;5.38;2.67;;;2.10;99.90;;;;;;4957132;29;20149;-75
2023/11/28 02:16:14;;;;;;;3.38;2.13;;;2.10;99.90;;;;;;4957617;29;20067;-75
2023/11/28 02:18:41;;;;;;;6.65;1.90;;;2.00;99.90;;;;;;4957104;29;20096;-75
2023/11/28 02:21:09;;;;;;;3.30;1.90;;;2.10;99.90;;;;;;4956439;28;20043;-75
2023/11/28 02:23:34;;;;;;;3.38;1.70;;;2.10;99.90;;;;;;4955358;29;20047;-75
2023/11/28 02:26:12;;;;;;;4.10;2.00;;;2.10;99.90;;;;;;4956364;29;20035;-75
2023/11/28 02:28:38;;;;;;;7.63;2.67;;;2.10;99.90;;;;;;4956605;28;20035;-75
2023/11/28 02:31:04;;;;;;;6.03;3.47;;;2.10;99.90;;;;;;4957685;29;20050;-75
2023/11/28 02:33:29;;;;;;;5.60;2.83;;;2.10;99.90;;;;;;4957940;29;20090;-75
2023/11/28 02:35:55;;;;;;;4.07;1.75;;;2.10;99.90;;;;;;4955120;29;20067;-75
2023/11/28 02:38:20;;;;;;;5.30;2.25;;;2.10;99.90;;;;;;4955028;29;20341;-75
2023/11/28 02:40:46;;;;;;;6.20;2.53;;;2.10;99.90;;;;;;4955058;29;20047;-75
2023/11/28 02:43:12;;;;;;;5.38;2.55;;;2.10;99.90;;;;;;4956863;29;20062;-75
2023/11/28 02:45:37;;;;;;;5.47;2.78;;;2.10;99.90;;;;;;4939429;29;20130;-75
2023/11/28 02:48:03;;;;;;;7.35;2.60;;;2.10;99.90;;;;;;4958940;29;20043;-75
2023/11/28 02:50:29;;;;;;;6.75;2.50;;;2.10;99.90;;;;;;4956474;29;20308;-75
2023/11/28 02:52:55;;;;;;;5.57;2.38;;;2.00;99.90;;;;;;4954741;29;20098;-75
2023/11/28 02:55:20;;;;;;;4.88;2.78;;;2.00;99.90;;;;;;4954922;29;20050;-75
2023/11/28 02:57:46;;;;;;;6.35;2.65;;;2.00;99.90;;;;;;4958815;29;20035;-75
2023/11/28 03:00:13;;;;;;;4.10;2.38;;;2.00;99.90;;;;;;4955462;29;20074;-75
2023/11/28 03:02:39;;;;;;;5.40;1.92;;;2.00;99.90;;;;;;4940889;29;20050;-75
2023/11/28 03:05:06;;;;;;;4.80;1.85;;;2.00;99.90;;;;;;4957222;29;20070;-75
2023/11/28 03:07:32;;;;;;;3.97;2.00;;;2.00;99.90;;;;;;4941153;29;20043;-75
2023/11/28 03:09:58;;;;;;;4.65;1.77;;;2.00;99.90;;;;;;4957605;29;20051;-75
2023/11/28 03:12:24;;;;;;;4.28;2.20;;;2.00;99.90;;;;;;4958289;29;20050;-75
2023/11/28 03:14:49;;;;;;;3.30;1.80;;;2.10;99.90;;;;;;4958249;29;20045;-75
2023/11/28 03:17:15;;;;;;;3.25;1.73;;;2.20;99.90;;;;;;4958148;28;20047;-75
2023/11/28 03:19:41;;;;;;;2.85;1.67;;;2.10;99.90;;;;;;4956078;29;20054;-75
2023/11/28 03:22:06;;;;;;;4.03;1.83;;;2.20;99.90;;;;;;4956824;29;20049;-75
2023/11/28 03:24:32;;;;;;;3.30;2.00;;;2.30;99.90;;;;;;4956372;29;20039;-75
2023/11/28 03:26:58;;;;;;;4.00;2.25;;;2.30;99.90;;;;;;4957069;29;20655;-75
2023/11/28 03:29:23;;;;;;;8.15;2.75;;;2.40;99.90;;;;;;4958800;29;20043;-75
2023/11/28 03:31:49;;;;;;;5.05;2.10;;;2.40;99.90;;;;;;4958276;28;20046;-75
2023/11/28 03:34:15;;;;;;;4.45;2.20;;;2.50;99.90;;;;;;4962033;29;20122;-75
2023/11/28 03:36:40;;;;;;;5.28;2.40;;;2.60;99.90;;;;;;4961887;29;20043;-75
2023/11/28 03:39:06;;;;;;;4.93;2.28;;;2.50;99.90;;;;;;4961105;29;20045;-75
2023/11/28 03:41:32;;;;;;;8.07;2.75;;;2.50;99.90;;;;;;4959745;29;20058;-75
2023/11/28 03:43:58;;;;;;;5.00;2.65;;;2.50;99.90;;;;;;4960797;29;20039;-75
2023/11/28 03:46:24;;;;;;;7.95;2.63;;;2.50;99.90;;;;;;4944904;29;20035;-75
2023/11/28 03:48:50;;;;;;;9.52;3.03;;;2.60;99.90;;;;;;4960352;29;20039;-75
2023/11/28 03:51:15;;;;;;;4.15;1.98;;;2.60;99.90;;;;;;4960253;29;20098;-75
2023/11/28 03:53:41;;;;;;;4.13;3.42;;;2.50;99.90;;;;;;4960308;29;20122;-75
2023/11/28 03:56:10;;;;;;;4.68;2.67;;;2.40;99.90;;;;;;4961121;29;20039;-76
2023/11/28 03:58:36;;;;;;;7.45;3.75;;;2.40;99.90;;;;;;4960563;29;20502;-75
2023/11/28 04:01:03;;;;;;;13.25;3.92;;;2.40;99.90;;;;;;4961707;29;20071;-75
2023/11/28 04:03:29;;;;;;;4.85;2.70;;;2.40;99.90;;;;;;4959840;29;20058;-75
2023/11/28 04:05:58;;;;;;;6.07;3.17;;;2.30;99.90;;;;;;4960053;29;20128;-75
2023/11/28 04:08:24;;;;;;;8.35;3.55;;;2.30;99.90;;;;;;4961388;28;20039;-75
2023/11/28 04:10:50;;;;;;;6.57;3.08;;;2.30;99.90;;;;;;4944892;29;20554;-75
2023/11/28 04:13:15;;;;;;;6.20;3.92;;;2.30;99.90;;;;;;4961942;29;20039;-75
2023/11/28 04:15:41;;;;;;;6.18;2.80;;;2.30;99.90;;;;;;4961801;28;20089;-75
2023/11/28 04:18:09;;;;;;;6.50;2.70;;;2.40;99.90;;;;;;4961123;28;20090;-75
2023/11/28 04:20:36;;;;;;;4.00;2.35;;;2.40;99.90;;;;;;4957840;29;20472;-75
2023/11/28 04:23:02;;;;;;;5.20;2.63;;;2.30;99.90;;;;;;4973540;28;20047;-75
2023/11/28 04:25:27;;;;;;;4.45;2.08;;;2.40;99.90;;;;;;4975747;28;20474;-75
2023/11/28 04:27:53;;;;;;;3.35;2.50;;;2.40;99.90;;;;;;4957211;29;20046;-75
2023/11/28 04:30:18;;;;;;;5.07;2.85;;;2.40;99.90;;;;;;4957045;29;20126;-75
2023/11/28 04:32:44;;;;;;;4.30;2.97;;;2.30;99.90;;;;;;4960055;28;20105;-75
2023/11/28 04:35:10;;;;;;;4.70;2.95;;;2.30;99.90;;;;;;4961012;29;20403;-75
2023/11/28 04:37:35;;;;;;;6.20;2.97;;;2.30;99.90;;;;;;4960629;28;20066;-75
2023/11/28 04:40:04;;;;;;;5.40;2.53;;;2.20;99.90;;;;;;4958557;29;20130;-75
2023/11/28 04:42:30;;;;;;;4.43;2.85;;;2.30;99.90;;;;;;4958672;28;20062;-75
2023/11/28 04:44:56;;;;;;;5.68;2.35;;;2.30;99.90;;;;;;4957611;28;20040;-75
2023/11/28 04:47:22;;;;;;;6.20;2.83;;;2.20;99.90;;;;;;4959822;29;20044;-75
2023/11/28 04:49:47;;;;;;;11.70;3.20;;;2.20;99.90;;;;;;4958344;29;20473;-75
2023/11/28 04:52:13;;;;;;;4.90;2.92;;;2.10;99.90;;;;;;4973124;28;20099;-75
2023/11/28 04:54:39;;;;;;;5.00;3.03;;;2.10;99.90;;;;;;4959887;29;20090;-75
2023/11/28 04:57:05;;;;;;;7.57;2.38;;;2.10;99.90;;;;;;4960436;29;20422;-75
2023/11/28 04:59:31;;;;;;;8.68;2.90;;;2.10;99.90;;;;;;4960011;29;20039;-75
2023/11/28 05:01:57;;;;;;;6.63;2.85;;;2.00;99.90;;;;;;4964606;28;20122;-75
2023/11/28 05:04:22;;;;;;;5.68;3.72;;;2.10;99.90;;;;;;4960992;28;20043;-75
2023/11/28 05:06:48;;;;;;;4.60;2.13;;;2.00;99.90;;;;;;4962484;29;20039;-75
2023/11/28 05:09:17;;;;;;;4.57;2.83;;;2.10;99.90;;;;;;4963080;29;20043;-75
2023/11/28 05:11:46;;;;;;;4.05;2.60;;;2.10;99.90;;;;;;4962226;28;20118;-75
2023/11/28 05:14:12;;;;;;;3.33;2.22;;;2.10;99.90;;;;;;4960705;29;20101;-75
2023/11/28 05:16:37;;;;;;;5.25;2.70;;;2.00;99.90;;;;;;4978315;28;20106;-75
2023/11/28 05:19:04;;;;;;;3.75;2.58;;;2.10;99.90;;;;;;4963577;29;20039;-75
2023/11/28 05:21:30;;;;;;;5.10;2.38;;;2.10;99.90;;;;;;4975884;28;20529;-75
2023/11/28 05:23:55;;;;;;;5.03;2.35;;;2.10;99.90;;;;;;4961458;29;20054;-75
2023/11/28 05:26:21;;;;;;;7.40;2.97;;;2.00;99.90;;;;;;4963040;29;20074;-75
2023/11/28 05:28:47;;;;;;;5.03;2.75;;;2.10;99.90;;;;;;4960375;29;20054;-75
2023/11/28 05:31:13;;;;;;;5.65;2.28;;;2.20;99.90;;;;;;4958300;29;20039;-75
2023/11/28 05:33:40;;;;;;;3.85;2.45;;;2.10;99.90;;;;;;4960352;28;20418;-75
2023/11/28 05:36:07;;;;;;;4.07;2.70;;;2.20;99.90;;;;;;4960923;28;20115;-75
2023/11/28 05:38:33;;;;;;;4.93;2.88;;;2.20;99.90;;;;;;4962020;28;20063;-75
2023/11/28 05:40:59;;;;;;;5.30;2.80;;;2.20;99.90;;;;;;4961227;29;20499;-75
2023/11/28 05:43:29;;;;;;;3.92;2.38;;;2.10;99.90;;;;;;4960386;28;20054;-75
2023/11/28 05:45:55;;;;;;;6.22;2.75;;;2.10;99.90;;;;;;4960740;29;20533;-75
2023/11/28 05:48:21;;;;;;;5.00;2.20;;;2.10;99.90;;;;;;4960576;29;20118;-75
2023/11/28 05:50:46;;;;;;;4.72;2.65;;;2.20;99.90;;;;;;4976563;28;20121;-75
2023/11/28 05:53:12;;;;;;;6.10;2.33;;;2.10;99.90;;;;;;4960654;28;20039;-75
2023/11/28 05:55:39;;;;;;;4.32;2.50;;;2.20;99.90;;;;;;4961229;28;20130;-76
2023/11/28 05:58:05;;;;;;;4.28;2.50;;;2.20;99.90;;;;;;4961079;29;20511;-76
2023/11/28 06:00:34;;;;;;;5.88;2.55;;;2.30;99.90;;;;;;4963024;29;20067;-76
2023/11/28 06:03:00;;;;;;;7.32;2.75;;;2.30;99.90;;;;;;4963420;28;20047;-76
2023/11/28 06:05:25;;;;;;;6.15;2.45;;;2.30;99.90;;;;;;4962831;28;20046;-76
2023/11/28 06:07:52;;;;;;;5.40;2.20;;;2.20;99.90;;;;;;4962711;29;20043;-76
2023/11/28 06:10:18;;;;;;;4.50;2.95;;;2.20;99.90;;;;;;4962635;28;20130;-76
2023/11/28 06:12:43;;;;;;;4.72;3.28;;;2.20;99.90;;;;;;4974953;28;20078;-76
2023/11/28 06:15:09;;;;;;;7.97;2.92;;;2.30;99.90;;;;;;4960028;28;20047;-76
2023/11/28 06:17:34;;;;;;;7.72;3.03;;;2.30;99.90;;;;;;4957399;29;20045;-76
2023/11/28 06:20:00;;;;;;;9.05;3.17;;;2.30;99.90;;;;;;4956208;28;20295;-76
2023/11/28 06:22:26;;;;;;;4.80;2.58;;;2.20;99.90;;;;;;4957761;28;20050;-76
2023/11/28 06:24:51;;;;;;;8.55;2.53;;;2.30;99.90;;;;;;4960344;29;20099;-76
2023/11/28 06:27:17;;;;;;;6.97;2.60;;;2.20;99.90;;;;;;4958940;29;20035;-75
2023/11/28 06:29:43;;;;;;;6.03;2.30;;;2.30;99.90;;;;;;4959547;29;20047;-75
2023/11/28 06:32:09;;;;;;;3.75;2.47;;;2.30;99.90;;;;;;4955857;29;20043;-75
2023/11/28 06:34:35;;;;;;;4.38;2.50;;;2.30;99.90;;;;;;4956567;28;20039;-76
2023/11/28 06:37:00;;;;;;;5.93;2.30;;;2.30;99.90;;;;;;4956961;28;20670;-76
2023/11/28 06:39:27;;;;;;;3.88;2.50;;;2.30;99.90;;;;;;4957412;28;20114;-75
2023/11/28 06:41:53;;;;;;;4.90;2.88;;;2.30;99.90;;;;;;4956388;29;20047;-75
2023/11/28 06:44:20;;;;;;;6.65;2.47;;;2.20;99.90;;;;;;4959857;28;20042;-75
2023/11/28 06:46:49;;;;;;;9.25;3.55;;;2.30;99.90;;;;;;4956608;28;20503;-76
2023/11/28 06:49:15;;;;;;;4.90;3.17;;;2.40;99.90;;;;;;4956939;28;20046;-76
2023/11/28 06:51:41;;;;;;;9.85;3.00;;;2.30;99.90;;;;;;4973412;28;20051;-75
2023/11/28 06:54:06;;;;;;;6.25;3.10;;;2.40;99.90;;;;;;4957972;28;20050;-75
2023/11/28 06:56:32;;;;;;;6.05;3.30;;;2.30;99.90;;;;;;4959207;28;20077;-76
2023/11/28 06:58:58;;;;;;;5.95;2.95;;;2.40;99.90;;;;;;4973851;28;20159;-75
2023/11/28 07:01:24;;;;;;;7.18;3.38;;;2.30;99.90;;;;;;4956335;29;20046;-75
2023/11/28 07:03:50;;;;;;;7.03;3.55;;;2.30;99.90;;;;;;4956604;29;20125;-76
2023/11/28 07:06:16;;;;;;;8.07;3.22;;;2.30;99.90;;;;;;4973959;28;20519;-75
2023/11/28 07:08:41;;;;;;;5.13;2.45;;;2.30;99.90;;;;;;4955358;29;20082;-75
2023/11/28 07:11:21;;;;;;;7.97;3.40;;;2.40;99.90;;;;;;4955236;29;20047;-75
2023/11/28 07:13:47;;;;;;;6.15;2.72;;;2.30;99.90;;;;;;4958979;29;20504;-75
2023/11/28 07:16:17;;;;;;;3.42;2.28;;;2.20;99.90;;;;;;4958646;29;20039;-74
2023/11/28 07:18:44;;;;;;;4.82;2.72;;;2.20;99.90;;;;;;4959154;28;20499;-75
2023/11/28 07:21:10;;;;;;;6.07;3.20;;;2.30;99.90;;;;;;4959216;28;20047;-75
2023/11/28 07:23:37;;;;;;;8.27;4.28;;;2.30;99.90;;;;;;4957540;29;20036;-75
2023/11/28 07:26:04;;;;;;;26.23;4.13;;;2.30;99.90;;;;;;4957460;28;20090;-75
2023/11/28 07:28:30;;;;;;;7.97;2.70;;;2.30;99.90;;;;;;4970565;28;20058;-75
2023/11/28 07:30:56;;;;;;;5.10;2.55;;;2.30;99.90;;;;;;4956738;28;20050;-76
2023/11/28 07:33:22;;;;;;;7.55;2.72;;;2.20;99.90;;;;;;4954417;29;20035;-75
2023/11/28 07:35:48;;;;;;;7.45;2.67;;;2.30;99.90;;;;;;4967989;28;20047;-75
2023/11/28 07:38:14;;;;;;;4.05;2.70;;;2.20;99.90;;;;;;4952183;29;20046;-75
2023/11/28 07:40:40;;;;;;;8.30;3.50;;;2.20;99.90;;;;;;4952208;29;20177;-75
2023/11/28 07:43:06;;;;;;;8.98;4.20;;;2.10;99.90;;;;;;4936193;29;20039;-75
2023/11/28 07:45:32;;;;;;;12.75;4.60;;;2.00;99.90;;;;;;4972627;28;20702;-77
2023/11/28 07:47:57;;;;;;;11.85;4.88;;;2.00;99.90;;;;;;4952276;28;20043;-76
2023/11/28 07:50:24;;;;;;;10.65;4.63;;;1.90;99.90;;;;;;4952235;29;20134;-75
2023/11/28 07:52:51;;;;;;;9.90;5.50;;;2.00;99.90;;;;;;4951930;29;20070;-76
2023/11/28 07:55:16;;;;;;;8.65;5.32;;;1.90;99.90;;;;;;4951752;29;20046;-76
2023/11/28 07:57:42;;;;;;;8.80;5.05;;;2.00;99.90;;;;;;4951789;29;20039;-76
2023/11/28 08:00:09;;;;;;;7.05;4.43;;;2.00;99.90;;;;;;4951403;29;20086;-75
2023/11/28 08:02:35;;;;;;;9.52;3.92;;;2.10;99.90;;;;;;4967607;28;20054;-76
2023/11/28 08:05:02;;;;;;;6.60;3.45;;;2.00;99.90;;;;;;4967740;28;20431;-75
2023/11/28 08:07:35;;;;;;;10.00;3.80;;;2.10;99.90;;;;;;4967179;28;20782;-75
2023/11/28 08:10:02;;;;;;;4.63;3.35;;;2.10;99.90;;;;;;4951049;29;20050;-75
2023/11/28 08:12:28;;;;;;;5.78;3.03;;;2.10;99.90;;;;;;4959243;28;20047;-76
2023/11/28 08:14:57;;;;;;;6.07;3.55;;;2.10;99.90;;;;;;4951642;29;20036;-75
2023/11/28 08:17:22;;;;;;;5.57;3.20;;;2.10;99.90;;;;;;4935637;28;20082;-75
2023/11/28 08:19:49;;;;;;;5.07;3.00;;;2.00;99.90;;;;;;4954169;29;20130;-75
2023/11/28 08:22:15;;;;;;;6.25;3.25;;;2.10;99.90;;;;;;4955057;29;20043;-75
2023/11/28 08:24:40;;;;;;;5.68;2.97;;;2.00;99.90;;;;;;4956199;29;20039;-75
2023/11/28 08:27:06;;;;;;;4.40;2.78;;;2.10;99.90;;;;;;4954807;29;20042;-75
2023/11/28 08:29:31;;;;;;;5.88;3.40;;;2.10;99.90;;;;;;4959130;28;20090;-75
2023/11/28 08:32:00;;;;;;;7.38;2.67;;;2.10;99.90;;;;;;4957217;28;20106;-75
2023/11/28 08:34:27;;;;;;;2.88;2.17;;;2.20;99.90;;;;;;4954792;29;20043;-76
2023/11/28 08:36:52;;;;;;;7.43;3.45;;;2.30;99.90;;;;;;4955814;29;20110;-76
2023/11/28 08:39:19;;;;;;;9.32;2.70;;;2.40;99.90;;;;;;4943514;28;20441;-75
2023/11/28 08:41:44;;;;;;;5.20;3.00;;;2.40;99.90;;;;;;4957434;28;20043;-75
2023/11/28 08:44:10;;;;;;;6.53;2.88;;;2.40;99.90;;;;;;4955952;29;20094;-74
2023/11/28 08:46:37;;;;;;;6.32;2.83;;;2.50;99.90;;;;;;4954471;29;20094;-74
2023/11/28 08:49:03;;;;;;;3.83;2.20;;;2.50;99.90;;;;;;4938713;29;20051;-75
2023/11/28 08:51:30;;;;;;;4.30;2.72;;;2.60;99.90;;;;;;4954647;29;20071;-75
2023/11/28 08:53:56;;;;;;;4.38;2.70;;;2.60;99.90;;;;;;4954132;29;20098;-75
2023/11/28 08:56:23;;;;;;;8.18;3.00;;;2.50;99.90;;;;;;4954218;29;20059;-75
2023/11/28 08:58:49;;;;;;;6.00;2.70;;;2.60;99.90;;;;;;4955507;29;20039;-75
2023/11/28 09:01:15;;;;;;;4.88;2.40;;;2.60;99.90;;;;;;4954247;29;20043;-75
2023/11/28 09:03:40;;;;;;;4.93;2.20;;;2.60;99.90;;;;;;4954090;29;20050;-75
2023/11/28 09:06:07;;;;;;;6.70;2.85;;;2.60;99.90;;;;;;4954027;29;20051;-75
2023/11/28 09:08:33;;;;;;;4.78;3.20;;;2.60;99.90;;;;;;4938274;29;20050;-75
2023/11/28 09:10:59;;;;;;;7.30;2.97;;;2.60;99.90;;;;;;4955416;28;20410;-75
2023/11/28 09:13:24;;;;;;;4.57;2.67;;;2.70;99.90;;;;;;4954263;29;20118;-76
2023/11/28 09:15:50;;;;;;;4.60;2.90;;;2.70;99.90;;;;;;4954085;29;20124;-75
2023/11/28 09:18:16;;;;;;;5.03;2.40;;;2.60;99.90;;;;;;4954130;29;20071;-74
2023/11/28 09:20:42;;;;;;;4.20;2.47;;;2.60;99.90;;;;;;4972757;28;20121;-76
2023/11/28 09:23:07;;;;;;;3.60;2.10;;;2.60;99.90;;;;;;4977635;28;20049;-75
2023/11/28 09:25:33;;;;;;;2.92;2.08;;;2.60;99.90;;;;;;4975365;28;20043;-74
2023/11/28 09:27:59;;;;;;;9.63;2.70;;;2.70;99.90;;;;;;4972835;28;20038;-76
2023/11/28 09:30:24;;;;;;;6.85;2.83;;;2.60;99.90;;;;;;4987161;28;20038;-74
2023/11/28 09:32:50;;;;;;;4.85;2.92;;;2.50;99.90;;;;;;4995461;28;20042;-74
2023/11/28 09:35:16;;;;;;;3.40;2.20;;;2.60;99.90;;;;;;4997491;28;20038;-74
2023/11/28 09:37:41;;;;;;;4.32;2.00;;;2.60;99.90;;;;;;4980470;28;20660;-74
2023/11/28 09:40:08;;;;;;;3.92;2.17;;;2.70;99.90;;;;;;4998357;28;20030;-75
2023/11/28 09:42:35;;;;;;;8.45;2.70;;;2.60;99.90;;;;;;5000018;28;20062;-75
2023/11/28 09:45:07;;;;;;;2.80;2.05;;;2.70;99.90;;;;;;5000162;28;20046;-75
2023/11/28 09:47:38;;;;;;;3.72;2.10;;;2.60;99.90;;;;;;4982579;28;20059;-75
2023/11/28 09:50:12;;;;;;;2.72;1.80;;;2.60;99.90;;;;;;4957139;29;20106;-75
2023/11/28 09:52:45;;;;;;;5.05;2.03;;;2.70;99.90;;;;;;4958346;29;20048;-75
2023/11/28 09:55:14;;;;;;;2.40;1.77;;;2.60;99.90;;;;;;4957975;29;20039;-75
2023/11/28 09:57:44;;;;;;;2.28;1.73;;;2.50;99.90;;;;;;4960438;29;20035;-75
2023/11/28 10:00:17;;;;;;;3.85;1.63;;;2.50;99.90;;;;;;4959504;29;20043;-75
2023/11/28 10:02:43;;;;;;;5.82;1.73;;;2.50;99.90;;;;;;4964409;28;20058;-75
2023/11/28 10:05:09;;;;;;;5.05;2.08;;;2.50;99.90;;;;;;4972465;28;20422;-75
2023/11/28 10:07:35;;;;;;;3.47;1.58;;;2.40;99.90;;;;;;4980347;28;20038;-74
2023/11/28 10:10:06;;;;;;;3.15;1.95;;;2.50;99.90;;;;;;4978069;28;20031;-75
2023/11/28 10:12:32;;;;;;;10.20;3.75;;;2.50;99.90;;;;;;4980227;28;20093;-75
2023/11/28 10:14:58;;;;;;;3.17;2.00;;;2.60;99.90;;;;;;4962599;28;20046;-75
2023/11/28 10:17:24;;;;;;;3.83;2.08;;;2.50;99.90;;;;;;4978727;28;20131;-75
2023/11/28 10:19:50;;;;;;;2.92;1.83;;;2.70;99.90;;;;;;4965154;28;20030;-75
2023/11/28 10:22:16;;;;;;;3.47;1.55;;;2.70;99.90;;;;;;4981157;28;20104;-75
2023/11/28 10:24:41;;;;;;;3.22;2.28;;;2.80;99.90;;;;;;4964322;28;20050;-74
2023/11/28 10:27:09;;;;;;;2.50;2.05;;;2.80;99.90;;;;;;4979714;28;20038;-75
2023/11/28 10:29:35;;;;;;;4.43;1.70;;;2.70;99.90;;;;;;4978595;28;20414;-75
2023/11/28 10:32:01;;;;;;;3.33;1.90;;;2.80;99.90;;;;;;4976602;28;20050;-75
2023/11/28 10:34:28;;;;;;;4.32;2.13;;;2.80;99.90;;;;;;4976418;28;20066;-75
2023/11/28 10:36:58;;;;;;;4.18;1.90;;;2.80;99.90;;;;;;4978256;28;20070;-75
2023/11/28 10:39:25;;;;;;;4.18;2.15;;;2.80;99.90;;;;;;4980578;28;20061;-75
2023/11/28 10:41:51;;;;;;;3.60;2.08;;;2.80;99.90;;;;;;4976909;28;20046;-77
2023/11/28 10:44:17;;;;;;;2.47;1.80;;;2.80;99.90;;;;;;4980385;28;20039;-75
2023/11/28 10:46:42;;;;;;;3.88;2.33;;;2.80;99.90;;;;;;4976871;28;20038;-75
2023/11/28 10:49:08;;;;;;;2.53;1.90;;;2.80;99.90;;;;;;4979576;28;20094;-75
2023/11/28 10:51:35;;;;;;;2.90;1.63;;;2.90;99.90;;;;;;4981552;28;20590;-77
2023/11/28 10:54:08;;;;;;;2.30;1.60;;;2.90;99.90;;;;;;4982754;28;20070;-75
2023/11/28 10:56:52;;;;;;;2.88;2.10;;;2.80;99.90;;;;;;4982240;28;20053;-75
2023/11/28 10:59:39;;;;;;;3.10;1.90;;;2.80;99.90;;;;;;4964884;28;20034;-75
2023/11/28 11:02:06;;;;;;;3.55;1.77;;;2.80;99.90;;;;;;4981586;28;20051;-75
2023/11/28 11:04:32;;;;;;;3.20;1.90;;;2.80;99.90;;;;;;4965116;28;20494;-75
2023/11/28 11:06:58;;;;;;;3.33;1.55;;;2.80;99.90;;;;;;4980503;28;20066;-75
2023/11/28 11:09:25;;;;;;;3.28;1.77;;;2.90;99.90;;;;;;4979493;28;20101;-75
2023/11/28 11:12:02;;;;;;;1.98;1.45;;;2.90;99.90;;;;;;4981360;28;20050;-75
2023/11/28 11:14:50;;;;;;;3.17;2.00;;;2.90;99.90;;;;;;4978910;28;20042;-75
2023/11/28 11:17:24;;;;;;;3.80;2.00;;;2.90;99.90;;;;;;4978900;28;20573;-75
2023/11/28 11:19:53;;;;;;;2.55;1.80;;;2.90;99.90;;;;;;4961926;28;20067;-75
2023/11/28 11:22:21;;;;;;;3.33;1.73;;;2.90;99.90;;;;;;4979311;28;20474;-75
2023/11/28 11:24:47;;;;;;;4.82;1.77;;;3.00;99.90;;;;;;4981122;28;20075;-75
2023/11/28 11:27:13;;;;;;;3.92;1.88;;;3.10;99.90;;;;;;4980504;28;20046;-75
2023/11/28 11:29:40;;;;;;;4.82;1.90;;;3.10;99.90;;;;;;4980576;28;20050;-75
2023/11/28 11:32:11;;;;;;;4.85;2.20;;;3.10;99.90;;;;;;4981382;28;20070;-75
2023/11/28 11:34:48;;;;;;;3.33;2.08;;;3.10;99.90;;;;;;4979210;28;20070;-75
2023/11/28 11:37:30;;;;;;;2.75;1.70;;;3.10;99.90;;;;;;4979380;28;20046;-75
2023/11/28 11:39:59;;;;;;;2.15;1.70;;;3.10;99.90;;;;;;4980544;28;20047;-75
2023/11/28 11:42:35;;;;;;;3.20;2.00;;;3.10;99.90;;;;;;4976172;28;20125;-75
2023/11/28 11:45:06;;;;;;;2.65;1.63;;;3.10;99.90;;;;;;4964455;28;20042;-75
2023/11/28 11:47:33;;;;;;;3.90;1.90;;;3.20;99.90;;;;;;4964263;28;20043;-75
2023/11/28 11:50:01;;;;;;;2.72;1.60;;;3.10;99.90;;;;;;4966107;28;20046;-74
2023/11/28 11:52:29;;;;;;;2.55;1.67;;;3.10;99.90;;;;;;4965395;28;20671;-74
2023/11/28 11:55:05;;;;;;;4.10;1.75;;;3.00;99.90;;;;;;4986148;28;20047;-74
2023/11/28 11:57:31;;;;;;;2.47;1.70;;;3.10;99.90;;;;;;4972096;28;20498;-75
2023/11/28 11:59:57;;;;;;;2.88;1.85;;;3.10;99.90;;;;;;4989102;28;20158;-75
2023/11/28 12:02:22;;;;;;;2.20;1.55;;;3.10;99.90;;;;;;5000003;28;20383;-75
2023/11/28 12:04:48;;;;;;;3.47;2.05;;;3.00;99.90;;;;;;4988197;28;20057;-74
2023/11/28 12:07:15;;;;;;;3.00;1.58;;;3.00;99.90;;;;;;4976726;28;20407;-73
2023/11/28 12:09:42;;;;;;;3.63;1.90;;;3.00;99.90;;;;;;4986433;28;20207;-73
2023/11/28 12:12:13;;;;;;;3.67;1.52;;;2.90;99.90;;;;;;4998211;28;20150;-73
2023/11/28 12:14:40;;;;;;;3.58;1.75;;;2.90;99.90;;;;;;4962072;28;20049;-73
2023/11/28 12:17:06;;;;;;;3.85;1.88;;;2.90;99.90;;;;;;4953567;28;20411;-75
2023/11/28 12:19:33;;;;;;;2.85;1.67;;;2.90;99.90;;;;;;4979240;28;20038;-73
2023/11/28 12:22:05;;;;;;;3.70;1.85;;;2.90;99.90;;;;;;4978408;28;20498;-73
2023/11/28 12:24:32;;;;;;;2.88;1.70;;;2.90;99.90;;;;;;4979166;28;20053;-73
2023/11/28 12:27:05;;;;;;;3.45;1.80;;;2.90;99.90;;;;;;4977557;28;20057;-73
2023/11/28 12:29:32;;;;;;;2.55;2.00;;;2.90;99.90;;;;;;4976833;28;20057;-75
2023/11/28 12:31:58;;;;;;;8.10;2.17;;;2.90;99.90;;;;;;4982771;28;20607;-75
2023/11/28 12:34:29;;;;;;;2.60;1.95;;;2.90;99.90;;;;;;4944809;28;1102809;-74
2023/11/28 12:36:56;;;;;;;3.13;1.80;;;3.00;99.90;;;;;;4973316;28;20039;-77
2023/11/28 12:39:29;;;;;;;4.22;1.73;;;3.00;99.90;;;;;;4965853;28;20058;-74
2023/11/28 12:41:56;;;;;;;3.67;1.98;;;2.90;99.90;;;;;;4964803;29;20070;-74
2023/11/28 12:44:29;;;;;;;3.35;2.13;;;3.00;99.90;;;;;;4964567;28;20047;-74
2023/11/28 12:46:55;;;;;;;3.33;1.92;;;3.00;99.90;;;;;;4964364;28;20054;-74
2023/11/28 12:49:22;;;;;;;3.80;2.30;;;2.90;99.90;;;;;;4964099;28;20043;-74
2023/11/28 12:51:48;;;;;;;4.97;2.50;;;2.90;99.90;;;;;;4963860;29;20126;-74
2023/11/28 12:54:14;;;;;;;3.53;2.00;;;3.00;99.90;;;;;;4964565;28;20518;-74
2023/11/28 12:56:54;;;;;;;3.47;2.10;;;3.00;99.90;;;;;;4964716;28;20078;-74